createdAt,value
2023-05-25T00:01:35.969Z,14.05
2023-05-25T00:04:38.843Z,15.00
2023-05-25T00:07:41.698Z,15.48
2023-05-25T00:10:44.471Z,13.75
2023-05-25T00:13:47.590Z,15.10
2023-05-25T00:16:52.018Z,15.05
2023-05-25T00:19:58.478Z,14.68
2023-05-25T00:23:02.902Z,13.63
2023-05-25T00:26:06.185Z,13.93
2023-05-25T00:29:08.978Z,14.10
2023-05-25T00:32:11.744Z,15.40
2023-05-25T00:35:15.571Z,15.68
2023-05-25T00:38:19.056Z,14.40
2023-05-25T00:41:22.824Z,14.20
2023-05-25T00:44:25.564Z,14.52
2023-05-25T00:47:28.784Z,14.00
2023-05-25T00:50:38.179Z,14.60
2023-05-25T00:53:41.762Z,14.00
2023-05-25T00:56:52.017Z,13.98
2023-05-25T00:59:55.065Z,13.90
2023-05-25T01:03:00.238Z,14.07
2023-05-25T01:06:04.296Z,13.85
2023-05-25T01:09:09.419Z,13.23
2023-05-25T01:12:12.392Z,13.30
2023-05-25T01:15:16.767Z,13.18
2023-05-25T01:18:20.598Z,12.52
2023-05-25T01:21:48.336Z,14.15
2023-05-25T01:24:57.669Z,14.02
2023-05-25T01:28:12.281Z,13.75
2023-05-25T01:31:16.694Z,13.30
2023-05-25T01:34:20.711Z,13.82
2023-05-25T01:37:26.864Z,13.13
2023-05-25T01:40:30.002Z,13.27
2023-05-25T01:43:32.979Z,12.48
2023-05-25T01:46:40.256Z,12.75
2023-05-25T01:50:02.756Z,13.52
2023-05-25T01:53:10.814Z,12.82
2023-05-25T01:56:14.476Z,13.02
2023-05-25T01:59:21.085Z,12.70
2023-05-25T02:02:25.036Z,11.93
2023-05-25T02:05:28.562Z,11.57
2023-05-25T02:08:31.565Z,11.23
2023-05-25T02:11:36.077Z,11.00
2023-05-25T02:14:38.887Z,12.13
2023-05-25T02:17:41.625Z,12.38
2023-05-25T02:20:45.268Z,11.80
2023-05-25T02:23:48.364Z,10.48
2023-05-25T02:26:51.948Z,10.88
2023-05-25T02:29:54.881Z,10.95
2023-05-25T02:33:02.935Z,10.88
2023-05-25T02:36:06.304Z,11.05
2023-05-25T02:39:09.645Z,10.80
2023-05-25T02:42:14.308Z,10.60
2023-05-25T02:45:17.980Z,9.65
2023-05-25T02:48:22.422Z,10.25
2023-05-25T02:51:25.275Z,10.57
2023-05-25T02:54:28.200Z,11.10
2023-05-25T02:57:31.167Z,10.77
2023-05-25T03:00:35.446Z,9.55
2023-05-25T03:03:38.313Z,10.25
2023-05-25T03:06:41.709Z,9.85
2023-05-25T03:09:48.424Z,10.30
2023-05-25T03:12:51.789Z,10.20
2023-05-25T03:15:54.882Z,9.77
2023-05-25T03:18:59.303Z,8.52
2023-05-25T03:22:03.899Z,10.20
2023-05-25T03:25:08.714Z,9.23
2023-05-25T03:28:11.930Z,8.05
2023-05-25T03:31:14.854Z,8.68
2023-05-25T03:34:18.153Z,8.90
2023-05-25T03:37:21.356Z,9.73
2023-05-25T03:40:24.370Z,8.48
2023-05-25T03:43:27.214Z,8.75
2023-05-25T03:46:30.765Z,8.07
2023-05-25T03:49:34.005Z,7.85
2023-05-25T03:52:36.869Z,8.25
2023-05-25T03:55:40.079Z,8.65
2023-05-25T03:58:43.409Z,9.00
2023-05-25T04:01:46.405Z,7.95
2023-05-25T04:04:51.474Z,6.78
2023-05-25T04:07:54.215Z,6.93
2023-05-25T04:10:57.881Z,7.15
2023-05-25T04:14:00.890Z,7.22
2023-05-25T04:17:06.221Z,7.07
2023-05-25T04:20:10.332Z,6.32
2023-05-25T04:23:13.401Z,7.68
2023-05-25T04:26:18.679Z,6.45
2023-05-25T04:29:24.144Z,6.35
2023-05-25T04:32:46.234Z,5.78
2023-05-25T04:36:05.931Z,6.70
2023-05-25T04:39:09.952Z,6.63
2023-05-25T04:42:17.472Z,6.82
2023-05-25T04:45:21.843Z,6.32
2023-05-25T04:48:25.088Z,6.55
2023-05-25T04:51:28.751Z,6.43
2023-05-25T04:54:32.698Z,6.68
2023-05-25T04:57:38.422Z,6.13
2023-05-25T05:00:42.038Z,6.45
2023-05-25T05:03:46.164Z,6.88
2023-05-25T05:06:50.120Z,6.03
2023-05-25T05:09:56.016Z,6.32
2023-05-25T05:12:59.398Z,5.82
2023-05-25T05:16:03.020Z,6.15
2023-05-25T05:19:06.063Z,6.72
2023-05-25T05:22:10.162Z,6.32
2023-05-25T05:25:14.551Z,6.15
2023-05-25T05:28:17.517Z,5.85
2023-05-25T05:31:22.158Z,5.30
2023-05-25T05:34:25.081Z,6.32
2023-05-25T05:37:27.853Z,5.82
2023-05-25T05:40:30.805Z,4.68
2023-05-25T05:43:33.905Z,5.50
2023-05-25T05:46:37.767Z,6.00
2023-05-25T05:49:41.098Z,5.97
2023-05-25T05:52:44.133Z,5.82
2023-05-25T05:55:49.593Z,5.47
2023-05-25T05:58:55.035Z,5.57
2023-05-25T06:01:57.909Z,5.10
2023-05-25T06:05:02.103Z,5.22
2023-05-25T06:08:06.148Z,4.45
2023-05-25T06:11:12.679Z,5.00
2023-05-25T06:14:16.182Z,4.93
2023-05-25T06:17:19.591Z,5.22
2023-05-25T06:20:25.333Z,4.87
2023-05-25T06:23:28.332Z,5.15
2023-05-25T06:26:32.370Z,4.70
2023-05-25T06:29:35.379Z,4.57
2023-05-25T06:32:38.783Z,5.00
2023-05-25T06:35:42.617Z,4.65
2023-05-25T06:38:47.602Z,4.53
2023-05-25T06:41:51.426Z,4.78
2023-05-25T06:45:05.471Z,4.10
2023-05-25T06:48:08.792Z,4.03
2023-05-25T06:51:11.964Z,3.80
2023-05-25T06:54:15.949Z,3.90
2023-05-25T06:57:18.989Z,4.55
2023-05-25T07:00:22.168Z,4.18
2023-05-25T07:03:25.098Z,4.10
2023-05-25T07:06:28.077Z,4.25
2023-05-25T07:09:31.216Z,4.68
2023-05-25T07:12:34.040Z,4.25
2023-05-25T07:15:36.820Z,4.38
2023-05-25T07:18:45.427Z,4.57
2023-05-25T07:21:48.426Z,3.78
2023-05-25T07:24:51.467Z,4.25
2023-05-25T07:27:55.799Z,4.32
2023-05-25T07:30:59.194Z,4.13
2023-05-25T07:34:02.437Z,4.03
2023-05-25T07:37:05.302Z,4.65
2023-05-25T07:40:08.850Z,4.30
2023-05-25T07:43:11.916Z,4.28
2023-05-25T07:46:15.109Z,4.85
2023-05-25T07:49:18.079Z,4.22
2023-05-25T07:52:21.160Z,4.65
2023-05-25T07:55:24.026Z,5.13
2023-05-25T07:58:26.869Z,4.43
2023-05-25T08:01:29.713Z,4.93
2023-05-25T08:04:34.238Z,5.15
2023-05-25T08:07:38.634Z,5.18
2023-05-25T08:10:43.019Z,4.45
2023-05-25T08:13:46.014Z,4.65
2023-05-25T08:16:48.945Z,4.25
2023-05-25T08:19:51.873Z,4.55
2023-05-25T08:22:55.174Z,5.03
2023-05-25T08:25:57.935Z,4.47
2023-05-25T08:29:02.075Z,5.60
2023-05-25T08:32:05.267Z,4.50
2023-05-25T08:35:08.404Z,4.50
2023-05-25T08:38:11.408Z,4.72
2023-05-25T08:41:14.658Z,4.47
2023-05-25T08:44:17.814Z,4.72
2023-05-25T08:47:23.607Z,4.72
2023-05-25T08:50:27.957Z,4.85
2023-05-25T08:53:38.502Z,5.05
2023-05-25T08:56:55.976Z,4.28
2023-05-25T09:00:11.362Z,4.38
2023-05-25T09:03:20.944Z,4.53
2023-05-25T09:06:26.411Z,4.38
2023-05-25T09:09:31.861Z,4.63
2023-05-25T09:12:36.798Z,4.10
2023-05-25T09:15:39.678Z,3.92
2023-05-25T09:18:42.784Z,5.00
2023-05-25T09:21:46.109Z,4.10
2023-05-25T09:24:49.416Z,4.13
2023-05-25T09:27:52.278Z,4.43
2023-05-25T09:30:55.739Z,3.97
2023-05-25T09:34:00.727Z,3.95
2023-05-25T09:37:14.798Z,4.63
2023-05-25T09:40:17.905Z,4.05
2023-05-25T09:43:36.334Z,4.15
2023-05-25T09:46:45.605Z,5.32
2023-05-25T09:49:50.344Z,5.47
2023-05-25T09:53:00.063Z,5.32
2023-05-25T09:56:04.122Z,5.47
2023-05-25T09:59:07.574Z,5.78
2023-05-25T10:02:10.391Z,5.82
2023-05-25T10:05:13.533Z,5.47
2023-05-25T10:08:18.785Z,5.57
2023-05-25T10:11:23.060Z,5.85
2023-05-25T10:14:29.726Z,5.97
2023-05-25T10:17:36.823Z,5.75
2023-05-25T10:23:51.726Z,5.90
2023-05-25T10:26:55.311Z,6.97
2023-05-25T10:29:59.735Z,6.05
2023-05-25T10:33:02.951Z,5.57
2023-05-25T10:36:10.854Z,6.03
2023-05-25T10:39:14.669Z,5.93
2023-05-25T10:42:19.013Z,5.90
2023-05-25T10:45:23.100Z,6.10
2023-05-25T10:48:36.905Z,6.32
2023-05-25T10:51:41.296Z,6.20
2023-05-25T10:54:44.882Z,6.25
2023-05-25T10:57:47.695Z,6.53
2023-05-25T11:01:00.942Z,6.10
2023-05-25T11:04:07.069Z,7.60
2023-05-25T11:07:15.020Z,6.70
2023-05-25T11:10:17.849Z,6.95
2023-05-25T11:13:44.205Z,6.90
2023-05-25T11:17:16.717Z,7.75
2023-05-25T11:20:28.372Z,7.35
2023-05-25T11:23:31.964Z,7.43
2023-05-25T11:26:35.922Z,8.07
2023-05-25T11:29:40.325Z,7.93
2023-05-25T11:32:50.970Z,8.43
2023-05-25T11:35:55.596Z,8.52
2023-05-25T11:39:08.517Z,8.38
2023-05-25T11:42:15.826Z,7.57
2023-05-25T11:45:18.620Z,7.82
2023-05-25T11:48:21.527Z,8.13
2023-05-25T11:51:27.090Z,7.70
2023-05-25T11:54:31.313Z,7.43
2023-05-25T11:57:34.156Z,7.90
2023-05-25T12:00:37.281Z,8.13
2023-05-25T12:03:40.562Z,8.43
2023-05-25T12:06:43.574Z,7.50
2023-05-25T12:09:46.507Z,7.70
2023-05-25T12:12:53.672Z,7.38
2023-05-25T12:15:58.071Z,7.70
2023-05-25T12:19:02.366Z,6.68
2023-05-25T12:22:05.588Z,7.25
2023-05-25T12:25:42.412Z,7.97
2023-05-25T12:29:06.765Z,7.40
2023-05-25T12:32:09.647Z,6.88
2023-05-25T12:35:12.512Z,7.43
2023-05-25T12:38:22.136Z,7.57
2023-05-25T12:41:25.299Z,7.70
2023-05-25T12:44:35.360Z,6.85
2023-05-25T12:47:40.268Z,7.32
2023-05-25T12:50:58.918Z,7.15
2023-05-25T12:54:03.393Z,7.35
2023-05-25T12:57:07.123Z,7.57
2023-05-25T13:00:11.077Z,6.65
2023-05-25T13:03:14.098Z,7.00
2023-05-25T13:06:17.215Z,7.07
2023-05-25T13:09:20.766Z,7.18
2023-05-25T13:12:23.619Z,6.70
2023-05-25T13:15:27.406Z,6.75
2023-05-25T13:18:30.328Z,6.10
2023-05-25T13:21:33.265Z,6.20
2023-05-25T13:24:36.775Z,6.55
2023-05-25T13:27:44.783Z,6.95
2023-05-25T13:30:47.843Z,6.28
2023-05-25T13:33:50.978Z,6.25
2023-05-25T13:36:53.861Z,6.10
2023-05-25T13:39:58.914Z,6.95
2023-05-25T13:43:02.017Z,6.38
2023-05-25T13:46:05.077Z,6.00
2023-05-25T13:49:08.113Z,6.03
2023-05-25T13:52:11.736Z,6.00
2023-05-25T13:55:14.890Z,5.82
2023-05-25T13:58:17.876Z,6.35
2023-05-25T14:01:21.192Z,5.95
2023-05-25T14:04:24.202Z,6.22
2023-05-25T14:07:27.470Z,6.57
2023-05-25T14:10:31.137Z,5.95
2023-05-25T14:13:34.698Z,6.32
2023-05-25T14:16:38.868Z,5.90
2023-05-25T14:19:41.769Z,6.38
2023-05-25T14:22:44.529Z,6.63
2023-05-25T14:25:49.067Z,6.85
2023-05-25T14:28:51.969Z,6.25
2023-05-25T14:31:54.857Z,6.60
2023-05-25T14:34:57.639Z,6.00
2023-05-25T14:38:00.448Z,5.70
2023-05-25T14:41:03.297Z,6.20
2023-05-25T14:44:06.538Z,7.22
2023-05-25T14:47:11.643Z,6.60
2023-05-25T14:50:14.897Z,6.68
2023-05-25T14:53:17.997Z,6.60
2023-05-25T14:56:25.501Z,6.97
2023-05-25T14:59:28.273Z,6.20
2023-05-25T15:02:31.174Z,6.93
2023-05-25T15:05:34.290Z,6.10
2023-05-25T15:08:37.627Z,6.00
2023-05-25T15:11:40.461Z,6.22
2023-05-25T15:14:43.361Z,6.47
2023-05-25T15:17:46.258Z,5.65
2023-05-25T15:20:49.595Z,6.22
2023-05-25T15:23:52.657Z,5.93
2023-05-25T15:26:55.547Z,6.32
2023-05-25T15:29:58.218Z,6.32
2023-05-25T15:33:03.660Z,6.40
2023-05-25T15:36:09.248Z,6.35
2023-05-25T15:39:13.601Z,6.25
2023-05-25T15:42:16.503Z,6.78
2023-05-25T15:45:19.832Z,6.50
2023-05-25T15:48:25.429Z,7.03
2023-05-25T15:51:29.225Z,6.50
2023-05-25T15:54:32.018Z,6.53
2023-05-25T15:57:35.161Z,6.40
2023-05-25T16:00:38.038Z,6.38
2023-05-25T16:03:43.399Z,6.13
2023-05-25T16:06:49.015Z,5.95
2023-05-25T16:09:51.707Z,6.47
2023-05-25T16:12:54.962Z,6.53
2023-05-25T16:15:57.951Z,7.05
2023-05-25T16:19:01.143Z,7.07
2023-05-25T16:22:04.125Z,7.07
2023-05-25T16:25:07.675Z,6.75
2023-05-25T16:28:10.714Z,7.13
2023-05-25T16:31:13.923Z,7.82
2023-05-25T16:34:16.629Z,7.43
2023-05-25T16:37:19.572Z,7.85
2023-05-25T16:40:22.543Z,7.97
2023-05-25T16:43:27.244Z,8.50
2023-05-25T16:46:30.496Z,8.77
2023-05-25T16:49:33.617Z,8.43
2023-05-25T16:52:36.742Z,8.65
2023-05-25T16:55:40.989Z,8.48
2023-05-25T16:58:44.142Z,8.57
2023-05-25T17:01:47.085Z,8.82
2023-05-25T17:04:50.071Z,8.18
2023-05-25T17:07:56.345Z,9.07
2023-05-25T17:10:59.675Z,8.90
2023-05-25T17:14:02.604Z,9.27
2023-05-25T17:17:05.781Z,9.50
2023-05-25T17:20:09.127Z,9.85
2023-05-25T17:23:12.031Z,9.45
2023-05-25T17:26:15.420Z,9.57
2023-05-25T17:29:18.653Z,9.75
2023-05-25T17:32:21.745Z,9.40
2023-05-25T17:35:24.729Z,8.90
2023-05-25T17:38:28.008Z,9.05
2023-05-25T17:41:31.442Z,10.35
2023-05-25T17:44:34.681Z,10.35
2023-05-25T17:47:38.756Z,10.00
2023-05-25T17:50:41.949Z,10.52
2023-05-25T17:53:45.171Z,11.32
2023-05-25T17:56:48.085Z,11.27
2023-05-25T17:59:51.004Z,11.75
2023-05-25T18:02:54.051Z,11.57
2023-05-25T18:05:57.296Z,11.70
2023-05-25T18:09:00.374Z,12.90
2023-05-25T18:12:04.356Z,12.38
2023-05-25T18:15:08.725Z,11.45
2023-05-25T18:18:11.640Z,12.48
2023-05-25T18:21:14.876Z,12.43
2023-05-25T18:24:17.929Z,12.88
2023-05-25T18:27:21.973Z,12.25
2023-05-25T18:30:25.445Z,13.77
2023-05-25T18:33:28.211Z,13.52
2023-05-25T18:36:33.343Z,13.50
2023-05-25T18:39:36.351Z,13.43
2023-05-25T18:42:40.285Z,14.30
2023-05-25T18:45:43.321Z,14.88
2023-05-25T18:48:46.938Z,14.50
2023-05-25T18:51:50.402Z,14.80
2023-05-25T18:54:53.783Z,16.42
2023-05-25T18:57:57.281Z,14.80
2023-05-25T19:01:00.442Z,15.40
2023-05-25T19:04:03.990Z,15.23
2023-05-25T19:07:07.010Z,15.77
2023-05-25T19:10:10.910Z,16.65
2023-05-25T19:13:13.922Z,14.95
2023-05-25T19:16:16.856Z,15.50
2023-05-25T19:19:19.800Z,16.10
2023-05-25T19:22:22.634Z,16.90
2023-05-25T19:25:25.728Z,15.50
2023-05-25T19:28:28.746Z,16.90
2023-05-25T19:31:32.108Z,14.88
2023-05-25T19:34:36.287Z,18.05
2023-05-25T19:37:41.274Z,17.20
2023-05-25T19:40:44.360Z,16.90
2023-05-25T19:43:47.683Z,17.55
2023-05-25T19:46:50.777Z,16.95
2023-05-25T19:49:53.743Z,18.10
2023-05-25T19:52:59.113Z,16.25
2023-05-25T19:56:03.771Z,17.60
2023-05-25T19:59:07.025Z,18.25
2023-05-25T20:02:10.023Z,17.92
2023-05-25T20:05:12.891Z,16.85
2023-05-25T20:08:15.959Z,18.23
2023-05-25T20:11:18.849Z,17.08
2023-05-25T20:14:22.475Z,17.42
2023-05-25T20:17:25.630Z,18.17
2023-05-25T20:20:28.740Z,17.58
2023-05-25T20:23:31.894Z,18.45
2023-05-25T20:26:37.117Z,17.83
2023-05-25T20:29:40.130Z,17.25
2023-05-25T20:32:45.492Z,15.98
2023-05-25T20:35:48.571Z,16.88
2023-05-25T20:38:51.701Z,16.20
2023-05-25T20:41:54.779Z,16.27
2023-05-25T20:44:57.750Z,16.02
2023-05-25T20:48:02.380Z,15.32
2023-05-25T20:51:07.789Z,15.10
2023-05-25T20:54:10.985Z,14.18
2023-05-25T20:57:14.856Z,15.07
2023-05-25T21:00:18.035Z,14.27
2023-05-25T21:03:21.401Z,14.85
2023-05-25T21:06:24.574Z,14.65
2023-05-25T21:09:27.496Z,15.20
2023-05-25T21:12:30.463Z,14.45
2023-05-25T21:15:33.225Z,13.93
2023-05-25T21:18:36.287Z,14.10
2023-05-25T21:21:39.578Z,14.35
2023-05-25T21:24:42.344Z,13.93
2023-05-25T21:27:45.209Z,14.35
2023-05-25T21:30:48.061Z,14.55
2023-05-25T21:33:51.498Z,14.60
2023-05-25T21:36:54.502Z,14.38
2023-05-25T21:39:57.186Z,13.73
2023-05-25T21:43:00.166Z,14.50
2023-05-25T21:46:03.223Z,14.50
2023-05-25T21:49:06.501Z,12.55
2023-05-25T21:52:09.977Z,12.93
2023-05-25T21:55:13.122Z,13.82
2023-05-25T21:58:18.046Z,13.88
2023-05-25T22:01:23.790Z,12.93
2023-05-25T22:04:26.933Z,13.55
2023-05-25T22:07:29.799Z,12.63
2023-05-25T22:10:32.819Z,13.63
2023-05-25T22:13:35.687Z,13.70
2023-05-25T22:16:38.551Z,12.60
2023-05-25T22:19:43.155Z,11.73
2023-05-25T22:22:47.725Z,12.40
2023-05-25T22:25:50.955Z,13.00
2023-05-25T22:28:53.780Z,12.70
2023-05-25T22:31:56.506Z,12.82
2023-05-25T22:34:59.206Z,12.95
2023-05-25T22:38:02.211Z,12.30
2023-05-25T22:41:04.943Z,13.85
2023-05-25T22:44:07.696Z,12.60
2023-05-25T22:47:10.909Z,12.23
2023-05-25T22:50:13.866Z,12.05
2023-05-25T22:53:19.077Z,12.40
2023-05-25T22:56:23.101Z,13.02
2023-05-25T22:59:25.876Z,12.60
2023-05-25T23:02:28.742Z,12.13
2023-05-25T23:05:31.623Z,12.02
2023-05-25T23:08:34.357Z,11.93
2023-05-25T23:11:37.310Z,12.23
2023-05-25T23:14:41.005Z,11.75
2023-05-25T23:17:43.989Z,12.80
2023-05-25T23:20:46.705Z,12.18
2023-05-25T23:23:49.696Z,11.82
2023-05-25T23:26:52.503Z,11.75
2023-05-25T23:29:55.337Z,11.65
2023-05-25T23:32:58.257Z,11.23
2023-05-25T23:36:01.276Z,11.88
2023-05-25T23:39:04.494Z,11.02
2023-05-25T23:42:07.464Z,11.25
2023-05-25T23:45:10.800Z,11.48
2023-05-25T23:48:13.641Z,11.60
2023-05-25T23:51:16.702Z,10.93
2023-05-25T23:54:19.466Z,12.27
2023-05-25T23:57:22.188Z,11.52
